createdAt,value
2017-01-16T00:00:08.117Z,0
2017-01-16T00:01:08.161Z,0
2017-01-16T00:02:08.210Z,0
2017-01-16T00:03:08.258Z,0
2017-01-16T00:04:08.320Z,0
2017-01-16T00:05:08.369Z,0
2017-01-16T00:06:08.430Z,0
2017-01-16T00:07:08.482Z,0
2017-01-16T00:08:08.541Z,0
2017-01-16T00:09:08.581Z,0
2017-01-16T00:10:08.650Z,0
2017-01-16T00:11:08.695Z,0
2017-01-16T00:12:08.749Z,0
2017-01-16T00:13:08.860Z,0
2017-01-16T00:14:08.867Z,0
2017-01-16T00:15:08.922Z,0
2017-01-16T00:16:08.965Z,0
2017-01-16T00:17:09.048Z,0
2017-01-16T00:18:09.079Z,0
2017-01-16T00:19:09.128Z,0
2017-01-16T00:20:09.188Z,0
2017-01-16T00:21:09.251Z,0
2017-01-16T00:22:09.295Z,0
2017-01-16T00:23:09.350Z,0
2017-01-16T00:24:09.414Z,0
2017-01-16T00:25:09.464Z,0
2017-01-16T00:26:09.507Z,0
2017-01-16T00:27:09.581Z,0
2017-01-16T00:28:09.628Z,0
2017-01-16T00:29:09.687Z,0
2017-01-16T00:30:09.730Z,0
2017-01-16T00:31:09.789Z,0
2017-01-16T00:32:09.847Z,0
2017-01-16T00:33:09.900Z,0
2017-01-16T00:34:09.960Z,0
2017-01-16T00:35:10.011Z,0
2017-01-16T00:36:10.439Z,0
2017-01-16T00:37:10.113Z,0
2017-01-16T00:38:10.175Z,0
2017-01-16T00:39:10.225Z,0
2017-01-16T00:40:10.286Z,0
2017-01-16T00:41:10.336Z,0
2017-01-16T00:42:10.390Z,0
2017-01-16T00:43:10.447Z,0
2017-01-16T00:44:10.498Z,0
2017-01-16T00:45:10.590Z,0
2017-01-16T00:46:10.611Z,0
2017-01-16T00:47:10.655Z,0
2017-01-16T00:48:10.721Z,0
2017-01-16T00:49:10.800Z,0
2017-01-16T00:50:10.827Z,0
2017-01-16T00:51:10.877Z,0
2017-01-16T00:52:10.940Z,0
2017-01-16T00:53:10.985Z,0
2017-01-16T00:54:11.033Z,0
2017-01-16T00:55:11.100Z,0
2017-01-16T00:56:11.155Z,0
2017-01-16T00:57:11.197Z,0
2017-01-16T00:58:11.278Z,0
2017-01-16T00:59:11.309Z,0
2017-01-16T01:00:11.363Z,0
2017-01-16T01:01:11.405Z,0
2017-01-16T01:02:11.468Z,0
2017-01-16T01:03:11.521Z,0
2017-01-16T01:04:11.596Z,0
2017-01-16T01:05:11.630Z,0
2017-01-16T01:06:11.680Z,0
2017-01-16T01:07:11.746Z,0
2017-01-16T01:08:11.788Z,0
2017-01-16T01:09:11.841Z,0
2017-01-16T01:10:11.895Z,0
2017-01-16T01:11:11.979Z,0
2017-01-16T01:12:12.000Z,0
2017-01-16T01:13:12.055Z,0
2017-01-16T01:14:12.119Z,0
2017-01-16T01:15:12.169Z,0
2017-01-16T01:16:12.220Z,0
2017-01-16T01:17:12.261Z,0
2017-01-16T01:18:12.323Z,0
2017-01-16T01:19:12.375Z,0
2017-01-16T01:20:12.436Z,0
2017-01-16T01:21:12.496Z,0
2017-01-16T01:22:12.924Z,0
2017-01-16T01:23:12.586Z,0
2017-01-16T01:24:12.651Z,0
2017-01-16T01:25:12.704Z,0
2017-01-16T01:26:12.761Z,0
2017-01-16T01:27:12.821Z,0
2017-01-16T01:28:12.875Z,0
2017-01-16T01:29:12.926Z,0
2017-01-16T01:30:12.967Z,0
2017-01-16T01:31:13.049Z,0
2017-01-16T01:32:13.088Z,0
2017-01-16T01:33:13.142Z,0
2017-01-16T01:34:13.200Z,0
2017-01-16T01:35:13.244Z,0
2017-01-16T01:36:13.310Z,0
2017-01-16T01:37:13.363Z,0
2017-01-16T01:38:13.810Z,0
2017-01-16T01:39:13.479Z,0
2017-01-16T01:40:13.533Z,0
2017-01-16T01:41:13.582Z,0
2017-01-16T01:42:13.635Z,0
2017-01-16T01:43:13.684Z,0
2017-01-16T01:44:13.749Z,0
2017-01-16T01:45:13.794Z,0
2017-01-16T01:46:13.848Z,0
2017-01-16T01:47:13.908Z,0
2017-01-16T01:48:13.951Z,0
2017-01-16T01:49:14.010Z,0
2017-01-16T01:50:14.078Z,0
2017-01-16T01:51:14.128Z,0
2017-01-16T01:52:14.180Z,0
2017-01-16T01:53:14.226Z,0
2017-01-16T01:54:14.283Z,0
2017-01-16T01:55:14.336Z,0
2017-01-16T01:56:14.395Z,0
2017-01-16T01:57:14.443Z,0
2017-01-16T01:58:14.886Z,0
2017-01-16T01:59:14.560Z,0
2017-01-16T02:00:14.607Z,0
2017-01-16T02:01:14.678Z,0
2017-01-16T02:02:14.724Z,0
2017-01-16T02:03:14.770Z,0
2017-01-16T02:04:14.829Z,0
2017-01-16T02:05:14.902Z,0
2017-01-16T02:06:14.943Z,0
2017-01-16T02:07:14.993Z,0
2017-01-16T02:08:15.055Z,0
2017-01-16T02:09:15.101Z,0
2017-01-16T02:10:15.162Z,0
2017-01-16T02:11:15.208Z,0
2017-01-16T02:12:15.263Z,0
2017-01-16T02:13:15.308Z,0
2017-01-16T02:14:15.379Z,0
2017-01-16T02:15:15.430Z,0
2017-01-16T02:16:15.489Z,0
2017-01-16T02:17:15.523Z,0
2017-01-16T02:18:15.590Z,0
2017-01-16T02:19:15.640Z,0
2017-01-16T02:20:15.709Z,0
2017-01-16T02:21:15.763Z,0
2017-01-16T02:22:15.805Z,0
2017-01-16T02:23:15.852Z,0
2017-01-16T02:24:15.919Z,0
2017-01-16T02:25:15.970Z,0
2017-01-16T02:26:16.016Z,0
2017-01-16T02:27:16.070Z,0
2017-01-16T02:28:16.130Z,0
2017-01-16T02:29:16.188Z,0
2017-01-16T02:30:16.237Z,0
2017-01-16T02:31:16.282Z,0
2017-01-16T02:32:16.348Z,0
2017-01-16T02:33:16.392Z,0
2017-01-16T02:34:16.441Z,0
2017-01-16T02:35:16.509Z,0
2017-01-16T02:36:16.559Z,0
2017-01-16T02:37:16.609Z,0
2017-01-16T02:38:16.698Z,0
2017-01-16T02:39:16.737Z,0
2017-01-16T02:40:16.778Z,0
2017-01-16T02:41:16.843Z,0
2017-01-16T02:42:16.885Z,0
2017-01-16T02:43:16.951Z,0
2017-01-16T02:44:16.998Z,0
2017-01-16T02:45:17.055Z,0
2017-01-16T02:46:17.100Z,0
2017-01-16T02:47:17.195Z,0
2017-01-16T02:48:17.214Z,0
2017-01-16T02:49:17.268Z,0
2017-01-16T02:50:17.320Z,0
2017-01-16T02:51:17.406Z,0
2017-01-16T02:52:17.437Z,0
2017-01-16T02:53:17.755Z,0
2017-01-16T02:54:17.534Z,0
2017-01-16T02:55:17.584Z,0
2017-01-16T02:56:17.653Z,0
2017-01-16T02:57:17.688Z,0
2017-01-16T02:58:17.757Z,0
2017-01-16T02:59:17.796Z,0
2017-01-16T03:00:17.866Z,0
2017-01-16T03:01:17.908Z,0
2017-01-16T03:02:17.964Z,0
2017-01-16T03:03:18.026Z,0
2017-01-16T03:04:18.069Z,0
2017-01-16T03:05:18.136Z,0
2017-01-16T03:06:18.180Z,0
2017-01-16T03:07:18.233Z,0
2017-01-16T03:08:18.296Z,0
2017-01-16T03:09:18.342Z,0
2017-01-16T03:10:18.392Z,0
2017-01-16T03:11:18.463Z,0
2017-01-16T03:12:18.521Z,0
2017-01-16T03:13:18.575Z,0
2017-01-16T03:14:18.609Z,0
2017-01-16T03:15:18.667Z,0
2017-01-16T03:16:18.736Z,0
2017-01-16T03:17:18.781Z,0
2017-01-16T03:18:18.830Z,0
2017-01-16T03:19:18.892Z,0
2017-01-16T03:20:18.952Z,0
2017-01-16T03:21:18.989Z,0
2017-01-16T03:22:19.044Z,0
2017-01-16T03:23:19.108Z,0
2017-01-16T03:24:19.161Z,0
2017-01-16T03:25:19.209Z,0
2017-01-16T03:26:19.266Z,0
2017-01-16T03:27:19.322Z,0
2017-01-16T03:28:19.372Z,0
2017-01-16T03:29:19.421Z,0
2017-01-16T03:30:19.487Z,0
2017-01-16T03:31:19.533Z,0
2017-01-16T03:32:19.584Z,0
2017-01-16T03:33:19.644Z,0
2017-01-16T03:34:19.695Z,0
2017-01-16T03:35:19.756Z,0
2017-01-16T03:36:19.810Z,0
2017-01-16T03:37:19.863Z,0
2017-01-16T03:38:19.919Z,0
2017-01-16T03:39:19.981Z,0
2017-01-16T03:40:20.027Z,0
2017-01-16T03:41:20.073Z,0
2017-01-16T03:42:20.128Z,0
2017-01-16T03:43:20.176Z,0
2017-01-16T03:44:20.242Z,0
2017-01-16T03:45:20.302Z,0
2017-01-16T03:46:20.344Z,0
2017-01-16T03:47:20.397Z,0
2017-01-16T03:48:20.457Z,0
2017-01-16T03:49:20.520Z,0
2017-01-16T03:50:20.562Z,0
2017-01-16T03:51:20.627Z,0
2017-01-16T03:52:20.674Z,0
2017-01-16T03:53:20.722Z,0
2017-01-16T03:54:20.790Z,0
2017-01-16T03:55:20.830Z,0
2017-01-16T03:56:20.888Z,0
2017-01-16T03:57:20.943Z,0
2017-01-16T03:58:21.002Z,0
2017-01-16T03:59:21.050Z,0
2017-01-16T04:00:21.128Z,0
2017-01-16T04:01:21.156Z,0
2017-01-16T04:02:22.718Z,0
2017-01-16T04:03:21.269Z,0
2017-01-16T04:04:21.319Z,0
2017-01-16T04:05:21.364Z,0
2017-01-16T04:06:21.434Z,0
2017-01-16T04:07:21.482Z,0
2017-01-16T04:08:21.534Z,0
2017-01-16T04:09:21.590Z,0
2017-01-16T04:10:21.647Z,0
2017-01-16T04:11:21.708Z,0
2017-01-16T04:12:21.754Z,0
2017-01-16T04:13:21.811Z,0
2017-01-16T04:14:21.855Z,0
2017-01-16T04:15:21.907Z,0
2017-01-16T04:16:21.972Z,0
2017-01-16T04:17:22.012Z,0
2017-01-16T04:18:22.071Z,0
2017-01-16T04:19:22.134Z,0
2017-01-16T04:20:22.176Z,0
2017-01-16T04:21:22.235Z,0
2017-01-16T04:22:22.301Z,0
2017-01-16T04:23:22.335Z,0
2017-01-16T04:24:22.402Z,0
2017-01-16T04:25:22.457Z,0
2017-01-16T04:26:22.497Z,0
2017-01-16T04:27:22.562Z,0
2017-01-16T04:28:22.608Z,0
2017-01-16T04:29:22.665Z,0
2017-01-16T04:30:22.728Z,0
2017-01-16T04:31:22.767Z,0
2017-01-16T04:32:22.828Z,0
2017-01-16T04:33:22.875Z,0
2017-01-16T04:34:22.934Z,0
2017-01-16T04:35:22.980Z,0
2017-01-16T04:36:23.052Z,0
2017-01-16T04:37:23.097Z,0
2017-01-16T04:38:23.171Z,0
2017-01-16T04:39:23.222Z,0
2017-01-16T04:40:23.257Z,0
2017-01-16T04:41:23.302Z,0
2017-01-16T04:42:23.351Z,0
2017-01-16T04:43:23.457Z,0
2017-01-16T04:44:23.462Z,0
2017-01-16T04:45:23.504Z,0
2017-01-16T04:46:23.562Z,0
2017-01-16T04:47:23.987Z,0
2017-01-16T04:48:23.831Z,0
2017-01-16T04:49:23.723Z,0
2017-01-16T04:50:23.771Z,0
2017-01-16T04:51:23.837Z,0
2017-01-16T04:52:23.891Z,0
2017-01-16T04:53:23.929Z,0
2017-01-16T04:54:23.994Z,0
2017-01-16T04:55:24.057Z,0
2017-01-16T04:56:24.100Z,0
2017-01-16T04:57:24.158Z,0
2017-01-16T04:58:24.192Z,0
2017-01-16T04:59:24.260Z,0
2017-01-16T05:00:24.325Z,0
2017-01-16T05:01:24.371Z,0
2017-01-16T05:02:24.423Z,0
2017-01-16T05:03:24.467Z,0
2017-01-16T05:04:24.518Z,0
2017-01-16T05:05:24.575Z,0
2017-01-16T05:06:24.638Z,0
2017-01-16T05:07:24.684Z,0
2017-01-16T05:08:24.729Z,0
2017-01-16T05:09:24.795Z,0
2017-01-16T05:10:24.872Z,0
2017-01-16T05:11:24.896Z,0
2017-01-16T05:12:24.945Z,0
2017-01-16T05:13:24.990Z,0
2017-01-16T05:14:25.048Z,0
2017-01-16T05:15:25.110Z,0
2017-01-16T05:16:25.152Z,0
2017-01-16T05:17:25.223Z,0
2017-01-16T05:18:25.269Z,0
2017-01-16T05:19:25.706Z,0
2017-01-16T05:20:25.387Z,0
2017-01-16T05:21:25.433Z,0
2017-01-16T05:22:25.479Z,0
2017-01-16T05:23:25.560Z,0
2017-01-16T05:24:25.587Z,0
2017-01-16T05:25:25.652Z,0
2017-01-16T05:26:25.694Z,0
2017-01-16T05:27:25.741Z,0
2017-01-16T05:28:25.800Z,0
2017-01-16T05:29:25.998Z,0
2017-01-16T05:30:25.909Z,0
2017-01-16T05:31:25.958Z,0
2017-01-16T05:32:26.015Z,0
2017-01-16T05:33:26.059Z,0
2017-01-16T05:34:26.119Z,0
2017-01-16T05:35:26.172Z,0
2017-01-16T05:36:26.215Z,0
2017-01-16T05:37:26.274Z,0
2017-01-16T05:38:26.331Z,0
2017-01-16T05:39:26.390Z,0
2017-01-16T05:40:26.435Z,0
2017-01-16T05:41:26.495Z,0
2017-01-16T05:42:26.535Z,0
2017-01-16T05:43:26.601Z,0
2017-01-16T05:44:26.660Z,0
2017-01-16T05:45:26.707Z,0
2017-01-16T05:46:26.756Z,0
2017-01-16T05:47:26.809Z,0
2017-01-16T05:48:26.867Z,0
2017-01-16T05:49:26.913Z,0
2017-01-16T05:50:26.967Z,0
2017-01-16T05:51:27.019Z,0
2017-01-16T05:52:27.073Z,0
2017-01-16T05:53:27.127Z,0
2017-01-16T05:54:27.192Z,0
2017-01-16T05:55:27.227Z,0
2017-01-16T05:56:27.290Z,0
2017-01-16T05:57:27.340Z,0
2017-01-16T05:58:27.421Z,0
2017-01-16T05:59:27.445Z,0
2017-01-16T06:00:27.494Z,0
2017-01-16T06:01:27.553Z,0
2017-01-16T06:02:27.605Z,0
2017-01-16T06:03:27.859Z,0
2017-01-16T06:04:27.726Z,0
2017-01-16T06:05:27.967Z,0
2017-01-16T06:06:27.831Z,0
2017-01-16T06:07:27.876Z,0
2017-01-16T06:08:27.926Z,0
2017-01-16T06:09:27.990Z,0
2017-01-16T06:10:28.029Z,0
2017-01-16T06:11:28.098Z,0
2017-01-16T06:12:28.133Z,0
2017-01-16T06:13:28.201Z,0
2017-01-16T06:14:28.254Z,0
2017-01-16T06:15:28.311Z,0
2017-01-16T06:16:28.354Z,0
2017-01-16T06:17:28.412Z,0
2017-01-16T06:18:28.470Z,0
2017-01-16T06:19:28.544Z,0
2017-01-16T06:20:28.569Z,0
2017-01-16T06:21:28.615Z,0
2017-01-16T06:22:28.684Z,0
2017-01-16T06:23:28.749Z,0
2017-01-16T06:24:28.783Z,0
2017-01-16T06:25:28.842Z,0
2017-01-16T06:26:28.890Z,0
2017-01-16T06:27:28.938Z,0
2017-01-16T06:28:29.212Z,0
2017-01-16T06:29:29.264Z,0
2017-01-16T06:30:29.321Z,0
2017-01-16T06:31:29.154Z,0
2017-01-16T06:32:29.219Z,0
2017-01-16T06:33:29.280Z,0
2017-01-16T06:34:29.311Z,0
2017-01-16T06:35:29.379Z,0
2017-01-16T06:36:29.435Z,0
2017-01-16T06:37:29.487Z,0
2017-01-16T06:38:29.530Z,0
2017-01-16T06:39:29.591Z,0
2017-01-16T06:40:29.651Z,0
2017-01-16T06:41:29.705Z,0
2017-01-16T06:42:29.758Z,0
2017-01-16T06:43:29.795Z,0
2017-01-16T06:44:29.858Z,0
2017-01-16T06:45:29.909Z,0
2017-01-16T06:46:29.969Z,0
2017-01-16T06:47:30.024Z,0
2017-01-16T06:48:30.071Z,0
2017-01-16T06:49:30.126Z,0
2017-01-16T06:50:30.182Z,0
2017-01-16T06:51:30.245Z,0
2017-01-16T06:52:30.284Z,0
2017-01-16T06:53:30.343Z,0
2017-01-16T06:54:30.591Z,0
2017-01-16T06:55:30.462Z,0
2017-01-16T06:56:30.512Z,0
2017-01-16T06:57:30.562Z,0
2017-01-16T06:58:30.610Z,0
2017-01-16T06:59:30.661Z,0
2017-01-16T07:00:30.727Z,0
2017-01-16T07:01:30.779Z,0
2017-01-16T07:02:30.833Z,0
2017-01-16T07:03:30.887Z,0
2017-01-16T07:04:30.938Z,0
2017-01-16T07:05:30.996Z,0
2017-01-16T07:06:31.250Z,0
2017-01-16T07:07:31.102Z,0
2017-01-16T07:08:31.150Z,0
2017-01-16T07:09:31.232Z,0
2017-01-16T07:10:31.272Z,0
2017-01-16T07:11:31.317Z,0
2017-01-16T07:12:31.372Z,0
2017-01-16T07:13:31.416Z,0
2017-01-16T07:14:31.496Z,0
2017-01-16T07:15:31.536Z,0
2017-01-16T07:16:31.584Z,0
2017-01-16T07:17:31.654Z,0
2017-01-16T07:18:31.698Z,0
2017-01-16T07:19:31.747Z,0
2017-01-16T07:20:32.010Z,0
2017-01-16T07:21:32.061Z,0
2017-01-16T07:22:31.911Z,0
2017-01-16T07:23:31.967Z,0
2017-01-16T07:24:32.024Z,0
2017-01-16T07:25:32.084Z,0
2017-01-16T07:26:32.328Z,0
2017-01-16T07:27:32.176Z,0
2017-01-16T07:28:32.238Z,0
2017-01-16T07:29:32.321Z,0
2017-01-16T07:30:32.334Z,0
2017-01-16T07:31:32.393Z,0
2017-01-16T07:32:32.458Z,0
2017-01-16T07:33:32.504Z,0
2017-01-16T07:34:32.568Z,0
2017-01-16T07:35:32.607Z,0
2017-01-16T07:36:32.662Z,0
2017-01-16T07:37:32.720Z,0
2017-01-16T07:38:32.777Z,0
2017-01-16T07:39:32.821Z,0
2017-01-16T07:40:32.877Z,0
2017-01-16T07:41:32.944Z,0
2017-01-16T07:42:32.991Z,0
2017-01-16T07:43:33.046Z,0
2017-01-16T07:44:33.128Z,0
2017-01-16T07:45:33.153Z,0
2017-01-16T07:46:33.419Z,0
2017-01-16T07:47:33.266Z,0
2017-01-16T07:48:33.314Z,0
2017-01-16T07:49:33.369Z,0
2017-01-16T07:50:33.417Z,0
2017-01-16T07:51:33.474Z,0
2017-01-16T07:52:33.516Z,0
2017-01-16T07:53:33.579Z,0
2017-01-16T07:54:33.641Z,0
2017-01-16T07:55:33.703Z,0
2017-01-16T07:56:33.747Z,5
2017-01-16T07:57:33.811Z,5
2017-01-16T07:58:33.860Z,5
2017-01-16T07:59:33.899Z,5
2017-01-16T08:00:33.957Z,5
2017-01-16T08:01:34.013Z,5
2017-01-16T08:02:34.062Z,5
2017-01-16T08:03:34.145Z,5
2017-01-16T08:04:34.187Z,5
2017-01-16T08:05:34.247Z,5
2017-01-16T08:06:34.285Z,5
2017-01-16T08:07:34.342Z,5
2017-01-16T08:08:34.432Z,5
2017-01-16T08:09:34.461Z,5
2017-01-16T08:10:34.503Z,5
2017-01-16T08:11:34.565Z,5
2017-01-16T08:12:34.812Z,10
2017-01-16T08:13:34.665Z,10
2017-01-16T08:14:34.729Z,10
2017-01-16T08:15:34.776Z,10
2017-01-16T08:16:34.834Z,10
2017-01-16T08:17:34.894Z,10
2017-01-16T08:18:34.946Z,5
2017-01-16T08:19:34.991Z,5
2017-01-16T08:20:35.052Z,5
2017-01-16T08:21:35.102Z,5
2017-01-16T08:22:35.168Z,5
2017-01-16T08:23:35.215Z,10
2017-01-16T08:24:35.262Z,5
2017-01-16T08:25:35.320Z,5
2017-01-16T08:26:35.379Z,10
2017-01-16T08:27:35.433Z,10
2017-01-16T08:28:35.488Z,10
2017-01-16T08:29:35.540Z,10
2017-01-16T08:30:35.587Z,10
2017-01-16T08:31:35.651Z,10
2017-01-16T08:32:35.704Z,10
2017-01-16T08:33:35.765Z,10
2017-01-16T08:34:35.824Z,10
2017-01-16T08:35:35.862Z,10
2017-01-16T08:36:35.920Z,10
2017-01-16T08:37:35.983Z,10
2017-01-16T08:38:36.237Z,10
2017-01-16T08:39:36.076Z,10
2017-01-16T08:40:36.145Z,10
2017-01-16T08:41:36.188Z,10
2017-01-16T08:42:36.251Z,10
2017-01-16T08:43:36.307Z,10
2017-01-16T08:44:36.352Z,10
2017-01-16T08:45:36.419Z,15
2017-01-16T08:46:36.475Z,10
2017-01-16T08:47:36.529Z,10
2017-01-16T08:48:36.563Z,10
2017-01-16T08:49:36.628Z,10
2017-01-16T08:50:36.681Z,10
2017-01-16T08:51:36.743Z,15
2017-01-16T08:52:36.802Z,15
2017-01-16T08:53:36.852Z,15
2017-01-16T08:54:36.898Z,15
2017-01-16T08:55:36.950Z,15
2017-01-16T08:56:37.025Z,15
2017-01-16T08:57:37.067Z,15
2017-01-16T08:58:37.128Z,15
2017-01-16T08:59:37.183Z,15
2017-01-16T09:00:37.238Z,15
2017-01-16T09:01:37.294Z,15
2017-01-16T09:02:37.331Z,15
2017-01-16T09:03:37.398Z,15
2017-01-16T09:04:37.448Z,15
2017-01-16T09:05:37.500Z,15
2017-01-16T09:06:37.559Z,15
2017-01-16T09:07:37.625Z,15
2017-01-16T09:08:37.674Z,15
2017-01-16T09:09:37.715Z,15
2017-01-16T09:10:37.785Z,15
2017-01-16T09:11:37.832Z,15
2017-01-16T09:12:37.901Z,15
2017-01-16T09:13:37.948Z,15
2017-01-16T09:14:37.994Z,15
2017-01-16T09:15:38.066Z,20
2017-01-16T09:16:38.108Z,20
2017-01-16T09:17:38.178Z,15
2017-01-16T09:18:38.231Z,20
2017-01-16T09:19:38.282Z,20
2017-01-16T09:20:38.332Z,20
2017-01-16T09:21:38.391Z,20
2017-01-16T09:22:38.459Z,20
2017-01-16T09:23:38.510Z,20
2017-01-16T09:24:38.568Z,20
2017-01-16T09:25:38.630Z,20
2017-01-16T09:26:38.681Z,20
2017-01-16T09:27:38.737Z,20
2017-01-16T09:28:38.793Z,20
2017-01-16T09:29:38.855Z,20
2017-01-16T09:30:38.899Z,20
2017-01-16T09:31:38.955Z,20
2017-01-16T09:32:39.026Z,20
2017-01-16T09:33:39.090Z,20
2017-01-16T09:34:39.129Z,20
2017-01-16T09:35:39.193Z,20
2017-01-16T09:36:39.264Z,20
2017-01-16T09:37:39.294Z,20
2017-01-16T09:38:39.355Z,20
2017-01-16T09:39:39.405Z,20
2017-01-16T09:40:39.460Z,20
2017-01-16T09:41:39.517Z,10
2017-01-16T09:42:39.574Z,15
2017-01-16T09:43:39.649Z,20
2017-01-16T09:44:39.784Z,20
2017-01-16T09:45:39.753Z,20
2017-01-16T09:46:39.806Z,20
2017-01-16T09:47:39.871Z,20
2017-01-16T09:48:39.922Z,20
2017-01-16T09:49:39.981Z,20
2017-01-16T09:50:40.038Z,25
2017-01-16T09:51:40.089Z,25
2017-01-16T09:52:40.150Z,20
2017-01-16T09:53:40.216Z,20
2017-01-16T09:54:40.258Z,25
2017-01-16T09:55:40.329Z,25
2017-01-16T09:56:40.381Z,25
2017-01-16T09:57:40.443Z,25
2017-01-16T09:58:40.504Z,25
2017-01-16T09:59:40.558Z,25
2017-01-16T10:00:40.615Z,25
2017-01-16T10:01:40.661Z,25
2017-01-16T10:02:40.722Z,25
2017-01-16T10:03:40.782Z,25
2017-01-16T10:04:40.844Z,30
2017-01-16T10:05:40.894Z,30
2017-01-16T10:06:41.341Z,35
2017-01-16T10:07:41.000Z,35
2017-01-16T10:08:41.053Z,40
2017-01-16T10:09:41.115Z,35
2017-01-16T10:10:41.174Z,35
2017-01-16T10:11:41.228Z,35
2017-01-16T10:12:41.286Z,35
2017-01-16T10:13:41.352Z,30
2017-01-16T10:14:41.426Z,35
2017-01-16T10:15:41.457Z,35
2017-01-16T10:16:41.520Z,35
2017-01-16T10:17:41.571Z,30
2017-01-16T10:18:41.649Z,30
2017-01-16T10:19:41.690Z,30
2017-01-16T10:20:41.768Z,30
2017-01-16T10:21:41.798Z,35
2017-01-16T10:22:41.868Z,40
2017-01-16T10:23:41.931Z,35
2017-01-16T10:24:41.984Z,35
2017-01-16T10:25:42.019Z,25
2017-01-16T10:26:42.072Z,30
2017-01-16T10:27:42.141Z,35
2017-01-16T10:28:42.203Z,40
2017-01-16T10:29:42.263Z,35
2017-01-16T10:30:42.309Z,25
2017-01-16T10:31:42.360Z,25
2017-01-16T10:32:42.422Z,30
2017-01-16T10:33:42.477Z,40
2017-01-16T10:34:42.529Z,40
2017-01-16T10:35:42.589Z,40
2017-01-16T10:36:42.660Z,30
2017-01-16T10:37:42.721Z,20
2017-01-16T10:38:42.783Z,25
2017-01-16T10:39:42.824Z,35
2017-01-16T10:40:42.881Z,35
2017-01-16T10:41:42.928Z,35
2017-01-16T10:42:42.986Z,40
2017-01-16T10:43:43.044Z,40
2017-01-16T10:44:43.108Z,30
2017-01-16T10:45:43.168Z,25
2017-01-16T10:46:43.208Z,20
2017-01-16T10:47:43.266Z,25
2017-01-16T10:48:43.325Z,25
2017-01-16T10:49:43.391Z,35
2017-01-16T10:50:43.459Z,25
2017-01-16T10:51:43.512Z,30
2017-01-16T10:52:43.552Z,35
2017-01-16T10:53:43.613Z,35
2017-01-16T10:54:43.660Z,25
2017-01-16T10:55:43.726Z,45
2017-01-16T10:56:43.764Z,45
2017-01-16T10:57:43.838Z,25
2017-01-16T10:58:43.899Z,40
2017-01-16T10:59:43.942Z,25
2017-01-16T11:00:43.998Z,35
2017-01-16T11:01:44.060Z,45
2017-01-16T11:02:44.118Z,25
2017-01-16T11:03:44.172Z,25
2017-01-16T11:04:44.235Z,20
2017-01-16T11:05:44.292Z,20
2017-01-16T11:06:44.445Z,25
2017-01-16T11:07:44.388Z,30
2017-01-16T11:08:44.455Z,20
2017-01-16T11:09:44.505Z,25
2017-01-16T11:10:44.569Z,35
2017-01-16T11:11:44.621Z,30
2017-01-16T11:12:44.682Z,25
2017-01-16T11:13:44.730Z,20
2017-01-16T11:14:44.799Z,20
2017-01-16T11:15:44.848Z,15
2017-01-16T11:16:44.904Z,15
2017-01-16T11:17:44.947Z,15
2017-01-16T11:18:45.013Z,20
2017-01-16T11:19:45.064Z,15
2017-01-16T11:20:45.118Z,15
2017-01-16T11:21:45.185Z,15
2017-01-16T11:22:45.239Z,15
2017-01-16T11:23:45.300Z,15
2017-01-16T11:24:45.352Z,20
2017-01-16T11:25:45.403Z,35
2017-01-16T11:26:45.491Z,40
2017-01-16T11:27:45.517Z,30
2017-01-16T11:28:45.562Z,20
2017-01-16T11:29:45.620Z,20
2017-01-16T11:30:45.684Z,20
2017-01-16T11:31:45.725Z,20
2017-01-16T11:32:45.788Z,30
2017-01-16T11:33:45.851Z,20
2017-01-16T11:34:45.900Z,20
2017-01-16T11:35:45.957Z,15
2017-01-16T11:36:46.018Z,15
2017-01-16T11:37:46.094Z,15
2017-01-16T11:38:46.133Z,15
2017-01-16T11:39:46.179Z,15
2017-01-16T11:40:46.235Z,15
2017-01-16T11:41:46.287Z,15
2017-01-16T11:42:46.361Z,15
2017-01-16T11:43:46.395Z,15
2017-01-16T11:44:46.461Z,15
2017-01-16T11:45:46.505Z,15
2017-01-16T11:46:46.564Z,15
2017-01-16T11:47:46.620Z,20
2017-01-16T11:48:46.685Z,20
2017-01-16T11:49:46.741Z,20
2017-01-16T11:50:46.793Z,30
2017-01-16T11:51:46.844Z,25
2017-01-16T11:52:46.888Z,25
2017-01-16T11:53:46.963Z,20
2017-01-16T11:54:47.013Z,20
2017-01-16T11:55:47.069Z,20
2017-01-16T11:56:47.135Z,20
2017-01-16T11:57:47.198Z,25
2017-01-16T11:58:47.228Z,25
2017-01-16T11:59:47.296Z,40
2017-01-16T12:00:47.352Z,35
2017-01-16T12:01:47.395Z,30
2017-01-16T12:02:47.451Z,30
2017-01-16T12:03:47.516Z,35
2017-01-16T12:04:47.571Z,30
2017-01-16T12:05:47.620Z,25
2017-01-16T12:06:47.677Z,25
2017-01-16T12:07:47.724Z,25
2017-01-16T12:08:47.787Z,25
2017-01-16T12:09:47.854Z,35
2017-01-16T12:10:47.909Z,30
2017-01-16T12:11:47.952Z,30
2017-01-16T12:12:48.010Z,25
2017-01-16T12:13:48.060Z,20
2017-01-16T12:14:48.114Z,35
2017-01-16T12:15:48.177Z,30
2017-01-16T12:16:48.231Z,25
2017-01-16T12:17:48.285Z,20
2017-01-16T12:18:48.341Z,15
2017-01-16T12:19:48.400Z,20
2017-01-16T12:20:48.832Z,20
2017-01-16T12:21:48.502Z,20
2017-01-16T12:22:48.568Z,20
2017-01-16T12:23:48.626Z,15
2017-01-16T12:24:48.670Z,15
2017-01-16T12:25:48.734Z,15
2017-01-16T12:26:48.777Z,15
2017-01-16T12:27:48.827Z,15
2017-01-16T12:28:48.897Z,15
2017-01-16T12:29:48.949Z,15
2017-01-16T12:30:49.012Z,20
2017-01-16T12:31:49.067Z,20
2017-01-16T12:32:49.121Z,15
2017-01-16T12:33:49.176Z,15
2017-01-16T12:34:49.219Z,10
2017-01-16T12:35:49.275Z,10
2017-01-16T12:36:49.340Z,10
2017-01-16T12:37:49.396Z,10
2017-01-16T12:38:49.451Z,10
2017-01-16T12:39:49.509Z,10
2017-01-16T12:40:49.565Z,10
2017-01-16T12:41:49.614Z,10
2017-01-16T12:42:49.671Z,10
2017-01-16T12:43:49.721Z,5
2017-01-16T12:44:49.807Z,5
2017-01-16T12:45:49.845Z,10
2017-01-16T12:46:49.893Z,10
2017-01-16T12:47:49.955Z,10
2017-01-16T12:48:49.998Z,5
2017-01-16T12:49:50.060Z,5
2017-01-16T12:50:50.099Z,5
2017-01-16T12:51:50.158Z,10
2017-01-16T12:52:50.213Z,10
2017-01-16T12:53:50.281Z,10
2017-01-16T12:54:50.325Z,10
2017-01-16T12:55:50.391Z,5
2017-01-16T12:56:50.449Z,5
2017-01-16T12:57:50.506Z,5
2017-01-16T12:58:50.546Z,5
2017-01-16T12:59:50.613Z,5
2017-01-16T13:00:51.050Z,5
2017-01-16T13:01:51.136Z,5
2017-01-16T13:02:50.773Z,5
2017-01-16T13:03:50.830Z,10
2017-01-16T13:04:50.883Z,10
2017-01-16T13:05:50.934Z,10
2017-01-16T13:06:50.996Z,10
2017-01-16T13:07:51.049Z,10
2017-01-16T13:08:51.100Z,10
2017-01-16T13:09:51.149Z,10
2017-01-16T13:10:51.224Z,10
2017-01-16T13:11:51.268Z,5
2017-01-16T13:12:51.324Z,5
2017-01-16T13:13:51.377Z,10
2017-01-16T13:14:51.427Z,10
2017-01-16T13:15:51.497Z,10
2017-01-16T13:16:51.559Z,10
2017-01-16T13:17:51.610Z,10
2017-01-16T13:18:51.662Z,10
2017-01-16T13:19:51.703Z,10
2017-01-16T13:20:51.773Z,10
2017-01-16T13:21:51.824Z,10
2017-01-16T13:22:51.885Z,10
2017-01-16T13:23:51.946Z,10
2017-01-16T13:24:51.992Z,5
2017-01-16T13:25:52.048Z,5
2017-01-16T13:26:52.115Z,5
2017-01-16T13:27:52.163Z,5
2017-01-16T13:28:52.210Z,10
2017-01-16T13:29:52.271Z,5
2017-01-16T13:30:52.327Z,5
2017-01-16T13:31:52.395Z,5
2017-01-16T13:32:52.845Z,10
2017-01-16T13:33:52.488Z,10
2017-01-16T13:34:52.557Z,10
2017-01-16T13:35:52.617Z,10
2017-01-16T13:36:52.656Z,10
2017-01-16T13:37:52.724Z,10
2017-01-16T13:38:52.773Z,10
2017-01-16T13:39:52.833Z,10
2017-01-16T13:40:52.881Z,10
2017-01-16T13:41:52.945Z,10
2017-01-16T13:42:53.008Z,10
2017-01-16T13:43:53.060Z,10
2017-01-16T13:44:53.117Z,10
2017-01-16T13:45:53.163Z,20
2017-01-16T13:46:53.223Z,20
2017-01-16T13:47:53.271Z,20
2017-01-16T13:48:53.326Z,20
2017-01-16T13:49:53.387Z,20
2017-01-16T13:50:53.446Z,20
2017-01-16T13:51:53.491Z,20
2017-01-16T13:52:53.555Z,25
2017-01-16T13:53:53.611Z,20
2017-01-16T13:54:53.677Z,20
2017-01-16T13:55:53.708Z,20
2017-01-16T13:56:53.777Z,15
2017-01-16T13:57:53.822Z,15
2017-01-16T13:58:53.883Z,15
2017-01-16T13:59:53.949Z,20
2017-01-16T14:00:54.000Z,20
2017-01-16T14:01:54.068Z,15
2017-01-16T14:02:54.113Z,15
2017-01-16T14:03:54.191Z,15
2017-01-16T14:04:54.218Z,15
2017-01-16T14:05:54.282Z,15
2017-01-16T14:06:54.336Z,15
2017-01-16T14:07:54.394Z,15
2017-01-16T14:08:54.446Z,15
2017-01-16T14:09:54.496Z,15
2017-01-16T14:10:54.558Z,15
2017-01-16T14:11:54.643Z,15
2017-01-16T14:12:54.672Z,15
2017-01-16T14:13:54.739Z,15
2017-01-16T14:14:54.777Z,15
2017-01-16T14:15:54.828Z,15
2017-01-16T14:16:54.911Z,15
2017-01-16T14:17:54.952Z,15
2017-01-16T14:18:55.009Z,15
2017-01-16T14:19:55.061Z,10
2017-01-16T14:20:55.124Z,10
2017-01-16T14:21:55.175Z,10
2017-01-16T14:22:55.225Z,10
2017-01-16T14:23:55.277Z,10
2017-01-16T14:24:55.327Z,10
2017-01-16T14:25:55.399Z,10
2017-01-16T14:26:55.447Z,10
2017-01-16T14:27:55.508Z,10
2017-01-16T14:28:55.559Z,5
2017-01-16T14:29:55.618Z,5
2017-01-16T14:30:55.678Z,10
2017-01-16T14:31:55.728Z,10
2017-01-16T14:32:55.775Z,10
2017-01-16T14:33:55.841Z,5
2017-01-16T14:34:55.900Z,5